Weather reports worldwide

Advertisment
Puerto Leitariegos, Spain (8052): temperature & dewpoint: 06.12.2019 11:00:00 - 12.12.2019 11:00:00 (CET)Puerto Leitariegos, Spain (8052): wind speed & gusts: 06.12.2019 11:00:00 - 12.12.2019 11:00:00 (CET)Puerto Leitariegos, Spain (8052): wind direction: 06.12.2019 11:00:00 - 12.12.2019 11:00:00 (CET)Puerto Leitariegos, Spain (8052): visibility: 06.12.2019 11:00:00 - 12.12.2019 11:00:00 (CET)Puerto Leitariegos, Spain (8052): sunshine duration: 06.12.2019 11:00:00 - 12.12.2019 11:00:00 (CET)Puerto Leitariegos, Spain (8052): precipitation: 06.12.2019 11:00:00 - 12.12.2019 11:00:00 (CET)
Date & Time tt [°C] td [°C] ff [km/h] ff [kn] fx [km/h] fx [kn] dd vv [km] sd [min] rr [mm]
12.12.2019 11:00:00 0,8 -0,5 26 14 69 38 NW 1,0 0 0,4
12.12.2019 10:00:00 - - - - - - - - - -
12.12.2019 09:00:00 0,6 -0,7 27 15 53 29 NW 1,1 0 0,4
12.12.2019 08:00:00 1,1 -0,5 29 15 49 26 NW 2,6 0 0,4
12.12.2019 07:00:00 0,7 -0,5 16 9 51 28 NNW 7 0 -
12.12.2019 06:00:00 - - - - - - - - - -
12.12.2019 05:00:00 1,0 -0,3 17 9 46 25 NW 3,1 0 0,0
12.12.2019 04:00:00 0,8 -0,3 20 11 41 22 NW 5 0 0,0
12.12.2019 03:00:00 0,6 -0,5 17 9 41 22 NW 2,6 0 0,0
12.12.2019 02:00:00 0,5 -0,3 21 11 40 22 NW 4,1 0 0,0
12.12.2019 01:00:00 0,3 -0,5 13 7 31 17 NNW 0,8 0 -
12.12.2019 00:00:00 0,2 -0,5 12 6 44 24 NNW 0,3 0 0,0
11.12.2019 23:00:00 0,1 -0,7 13 7 36 19 NNW 2,5 0 0,0
11.12.2019 22:00:00 0,2 -0,7 21 12 45 25 NNW 5 0 0,0
11.12.2019 21:00:00 0,1 -0,7 22 12 51 28 NW 2,3 0 0,0
11.12.2019 20:00:00 0,0 -0,7 23 12 46 25 NNW 6 0 0,0
11.12.2019 19:00:00 -0,1 -0,7 19 11 34 18 NNW 1,2 0 -
11.12.2019 18:00:00 0,0 -0,7 20 11 42 23 NNW 1,2 0 0,0
11.12.2019 17:00:00 - - - - - - - - - -
11.12.2019 16:00:00 0,3 -1,0 16 9 44 24 NW 19 0 0,0
11.12.2019 15:00:00 0,2 -1,2 20 11 41 22 NW 17 0 0,0
11.12.2019 14:00:00 -0,4 -1,7 24 13 43 23 NNW 2,1 7 0,0
11.12.2019 13:00:00 -1,0 -2,7 24 13 44 24 NW 20 34 -
11.12.2019 12:00:00 -1,1 -2,7 23 12 45 24 NW 20 43 0,0
11.12.2019 11:00:00 -1,2 -2,2 19 11 46 25 NNW 20 21 0,0
11.12.2019 10:00:00 -1,6 -2,5 28 15 52 28 NNW 16 2 0,0
11.12.2019 09:00:00 -1,2 -2,0 29 16 55 30 NNW 0,5 0 0,2
11.12.2019 08:00:00 -0,7 -1,4 27 14 51 27 NW 0,4 0 0,2
11.12.2019 07:00:00 -0,3 -1,0 27 15 41 22 NW 0,5 0 -
11.12.2019 06:00:00 0,1 -0,7 24 13 49 26 NW 0,9 0 2,0
11.12.2019 05:00:00 1,3 0,2 35 19 49 27 NNW 2,2 0 1,6
11.12.2019 04:00:00 - - - - - - - - - -
11.12.2019 03:00:00 4,3 2,5 13 7 29 16 NW 3,6 0 2,4
11.12.2019 02:00:00 3,0 0,0 11 6 22 12 SSE 20 0 0,0
11.12.2019 01:00:00 3,1 -1,2 11 6 23 12 SE 20 0 -
11.12.2019 00:00:00 - - - - - - - - - -
10.12.2019 23:00:00 3,6 -4,5 11 6 27 15 SE 20 0 0,0
10.12.2019 22:00:00 3,8 -4,8 8 5 26 14 SE 20 0 0,0
10.12.2019 21:00:00 4,5 -4,2 17 9 31 17 SE 20 0 0,0
10.12.2019 20:00:00 - - - - - - - - - -
10.12.2019 19:00:00 5,5 -5,7 11 6 23 13 S 20 0 -
10.12.2019 18:00:00 - - - - - - - - - -
10.12.2019 17:00:00 6,0 -2,5 9 5 21 11 SSE 20 0 0,0
10.12.2019 16:00:00 5,8 -4,5 13 7 21 11 SSE 20 0 0,0
10.12.2019 15:00:00 - - - - - - - - - -
10.12.2019 14:00:00 5,9 -3,3 11 6 20 11 SSE 20 4 0,0
10.12.2019 13:00:00 5,7 -3,9 10 6 17 9 SSE 20 0 -
10.12.2019 12:00:00 5,6 -4,8 9 5 16 9 ESE 20 13 0,0
10.12.2019 11:00:00 4,2 -5,4 6 3 15 8 S 20 0 0,0
10.12.2019 10:00:00 - - - - - - - - - -
10.12.2019 09:00:00 2,5 -5,1 5 3 9 5 SE 20 0 0,0
10.12.2019 08:00:00 - - - - - - - - - -
10.12.2019 07:00:00 1,9 -4,8 1 1 5 3 E 20 0 -
10.12.2019 06:00:00 1,7 -6,0 3 2 5 3 SSE 20 0 0,0
10.12.2019 05:00:00 - - - - - - - - - -
10.12.2019 04:00:00 1,8 -7,5 3 2 5 3 SSE 20 0 0,0
10.12.2019 03:00:00 1,5 -6,7 1 1 4 2 NNE 20 0 0,0
10.12.2019 02:00:00 - - - - - - - - - -
10.12.2019 01:00:00 - - - - - - - - - -
10.12.2019 00:00:00 1,9 -7,1 10 5 16 8 NW 20 0 0,0
09.12.2019 23:00:00 2,0 -6,7 7 4 18 10 NW 20 0 0,0
09.12.2019 22:00:00 1,5 -6,4 4 2 26 14 NW 20 0 0,0
09.12.2019 21:00:00 - - - - - - - - - -
09.12.2019 20:00:00 0,4 -3,0 7 4 16 9 NW 20 0 0,0
09.12.2019 19:00:00 - - - - - - - - - -
09.12.2019 18:00:00 0,8 -0,7 13 7 42 23 NW 12 0 0,0
09.12.2019 17:00:00 2,0 -1,4 28 15 41 22 NW 20 0 0,0
09.12.2019 16:00:00 2,3 0,0 24 13 33 18 NW 20 6 0,0
09.12.2019 15:00:00 2,6 0,4 24 13 40 21 WNW 20 21 0,0
09.12.2019 14:00:00 2,3 0,4 27 15 40 21 NNW 20 40 0,0
09.12.2019 13:00:00 2,4 0,2 26 14 50 27 WNW 17 12 -
09.12.2019 12:00:00 - - - - - - - - - -
09.12.2019 11:00:00 1,0 -0,5 34 18 44 24 NW 11 11 0,0
09.12.2019 10:00:00 - - - - - - - - - -
09.12.2019 09:00:00 1,8 -4,2 34 18 45 24 NNW 20 0 0,0
09.12.2019 08:00:00 1,8 -5,1 21 12 36 19 NNW 20 0 0,0
09.12.2019 07:00:00 1,6 -5,7 29 15 37 20 NNW 20 0 -
09.12.2019 06:00:00 2,2 -7,1 28 15 36 20 NNW 20 0 0,0
09.12.2019 05:00:00 - - - - - - - - - -
09.12.2019 04:00:00 2,0 -8,6 27 15 34 19 NNW 20 0 0,0
09.12.2019 03:00:00 1,9 -9,4 21 11 34 18 NNW 20 0 0,0
09.12.2019 02:00:00 1,6 -9,4 20 11 31 17 NNW 20 0 0,0
09.12.2019 01:00:00 - - - - - - - - - -
09.12.2019 00:00:00 - - - - - - - - - -
08.12.2019 23:00:00 1,7 -5,4 17 9 24 13 NW 20 0 0,0
08.12.2019 22:00:00 - - - - - - - - - -
08.12.2019 21:00:00 1,6 -1,0 1 1 13 7 WNW 20 0 0,0
08.12.2019 20:00:00 2,9 1,7 11 6 21 11 NNW 20 0 0,0
08.12.2019 19:00:00 3,4 1,9 8 4 20 11 WNW 20 0 -
08.12.2019 18:00:00 4,0 2,5 12 6 16 9 NW 20 0 0,0
08.12.2019 17:00:00 5,0 3,6 10 5 29 16 NNW 20 0 0,0
08.12.2019 16:00:00 5,9 4,3 21 11 32 17 NNW 20 3 0,0
08.12.2019 15:00:00 - - - - - - - - - -
08.12.2019 14:00:00 6,8 6,2 17 9 27 15 NNW 0,2 0 0,0
08.12.2019 13:00:00 - - - - - - - - - -
08.12.2019 12:00:00 7,0 6,3 10 6 23 12 NW - 0 0,0
08.12.2019 11:00:00 6,9 5,9 6 4 19 10 NNW 8 0 0,4
08.12.2019 10:00:00 5,4 4,3 4 2 11 6 S 4,0 0 0,8
08.12.2019 09:00:00 5,6 4,3 4 2 9 5 SSE 12 0 0,0
08.12.2019 08:00:00 6,1 4,5 4 2 27 14 NW 20 0 0,0
08.12.2019 07:00:00 - - - - - - - - - -
08.12.2019 06:00:00 5,9 5,0 7 4 20 11 NNW 4,9 0 0,0
08.12.2019 05:00:00 - - - - - - - - - -
08.12.2019 04:00:00 7,3 5,5 15 8 29 16 W 4,7 0 0,0
08.12.2019 03:00:00 6,0 4,8 9 5 19 11 NW 8 0 0,0
08.12.2019 02:00:00 - - - - - - - - - -
08.12.2019 01:00:00 5,5 3,8 2 1 19 10 NNW 20 0 -
08.12.2019 00:00:00 5,5 3,4 10 5 21 11 NW 20 0 0,0
07.12.2019 23:00:00 - - - - - - - - - -
07.12.2019 22:00:00 5,4 2,5 8 5 24 13 W 20 0 0,0
07.12.2019 21:00:00 5,1 2,9 3 2 26 14 N 20 0 0,0
07.12.2019 20:00:00 - - - - - - - - - -
07.12.2019 19:00:00 5,5 3,8 8 5 23 13 NNW 20 0 -
07.12.2019 18:00:00 6,0 3,6 2 1 16 9 SSE 20 0 0,0
07.12.2019 17:00:00 6,8 3,9 3 2 14 7 W 20 0 0,0
07.12.2019 16:00:00 7,2 4,3 3 2 13 7 S 20 0 0,0
07.12.2019 15:00:00 7,3 4,5 6 3 16 9 W 20 11 0,0
07.12.2019 14:00:00 7,9 4,6 4 2 11 6 SSW 20 7 0,0
07.12.2019 13:00:00 8,1 4,6 2 1 9 5 WNW 20 34 -
07.12.2019 12:00:00 7,2 4,6 4 2 6 4 SE 20 26 0,0
07.12.2019 11:00:00 - - - - - - - - - -
07.12.2019 10:00:00 5,1 3,2 1 1 4 2 NNW 20 1 0,0
07.12.2019 09:00:00 - - - - - - - - - -
07.12.2019 08:00:00 4,5 3,0 6 3 9 5 NW 20 0 0,0
07.12.2019 07:00:00 - - - - - - - - - -
07.12.2019 06:00:00 4,4 1,9 0 0 5 3 N 20 0 0,0
07.12.2019 05:00:00 - - - - - - - - - -
07.12.2019 04:00:00 3,2 -2,5 2 1 6 3 NE 20 0 0,0
07.12.2019 03:00:00 3,1 -3,6 1 1 9 5 NE 20 0 0,0
07.12.2019 02:00:00 2,9 -7,5 1 1 10 5 ESE 20 0 0,0
07.12.2019 01:00:00 - - - - - - - - - -
07.12.2019 00:00:00 4,0 -1,7 8 4 14 7 NW 20 0 0,0
06.12.2019 23:00:00 4,3 -2,7 5 3 16 8 NW 20 0 0,0
06.12.2019 22:00:00 3,9 -4,8 9 5 14 7 NW 20 0 0,0
06.12.2019 21:00:00 - - - - - - - - - -
06.12.2019 20:00:00 3,4 -5,4 3 1 8 5 NW 20 0 0,0
06.12.2019 19:00:00 3,5 -4,2 2 1 16 8 NW 20 0 -
06.12.2019 18:00:00 - - - - - - - - - -
06.12.2019 17:00:00 5,5 -2,5 10 6 16 8 NW 20 0 0,0
06.12.2019 16:00:00 5,4 1,5 5 3 11 6 NW 20 0 0,0
06.12.2019 15:00:00 6,0 1,3 11 6 14 8 NW 20 30 0,0
06.12.2019 14:00:00 - - - - - - - - - -
06.12.2019 13:00:00 5,8 1,1 10 5 13 7 SSE 20 2 -
06.12.2019 12:00:00 - - - - - - - - - -
06.12.2019 11:00:00 6,1 -0,3 8 4 14 8 NW 20 42 0,0

tt = temperature
td = dewpoint
ff = wind speed
fx = gusts
dd = wind direction
vv = visibility
sd = sunshine duration
rr = precipitation

Next stations